Time;durP1;ratioP1;P1;durP2;ratioP2;P2;SDS_P1;SDS_P2;PMS_P1;PMS_P2;Temp;Humidity;BMP_temperature;BMP_pressure;BME280_temperature;BME280_humidity;BME280_pressure;Samples;Min_cycle;Max_cycle;Signal;HPM_P1;HPM_P2
2021/01/12 06:01:54;;;;;;;;;;;;;;;;;;5065077;27;20385;-53
2021/01/12 06:04:20;;;;;;;0.00;0.00;;;;;;;;;;5058405;28;19939;-53
2021/01/12 06:06:47;;;;;;;0.00;0.00;;;;;;;;;;5057728;28;20028;-53
2021/01/12 06:09:14;;;;;;;0.30;0.30;;;;;;;;;;5060062;28;20029;-51
2021/01/12 06:11:42;;;;;;;5.10;1.17;;;;;;;;;;5065129;28;20119;-52
2021/01/12 06:14:09;;;;;;;0.95;0.30;;;;;;;;;;5064797;28;20048;-52
2021/01/12 06:16:39;;;;;;;12.05;1.10;;;;;;;;;;5063755;28;20535;-55
2021/01/12 06:19:06;;;;;;;0.15;0.08;;;;;;;;;;5055461;28;20036;-58
2021/01/12 06:21:36;;;;;;;0.00;0.00;;;;;;;;;;5059444;28;20025;-53
2021/01/12 06:24:09;;;;;;;0.00;0.00;;;;;;;;;;5065580;28;20048;-52
2021/01/12 06:26:37;;;;;;;0.00;0.00;;;;;;;;;;5064725;28;20123;-55
2021/01/12 06:29:03;;;;;;;5.57;0.50;;;;;;;;;;5063089;28;20049;-53
2021/01/12 06:31:30;;;;;;;0.50;0.30;;;;;;;;;;5052011;28;20041;-55
2021/01/12 06:33:57;;;;;;;0.00;0.00;;;;;;;;;;5056696;28;20028;-54
2021/01/12 06:36:26;;;;;;;0.00;0.00;;;;;;;;;;5062827;28;20127;-56
2021/01/12 06:38:53;;;;;;;1.55;0.03;;;;;;;;;;5063131;28;20021;-55
2021/01/12 06:41:22;;;;;;;0.00;0.00;;;;;;;;;;5053039;28;20638;-52
2021/01/12 06:43:50;;;;;;;0.90;0.20;;;;;;;;;;5046161;28;20025;-55
2021/01/12 06:46:17;;;;;;;3.90;0.32;;;;;;;;;;5050486;28;20025;-52
2021/01/12 06:48:44;;;;;;;2.03;0.25;;;;;;;;;;5049755;28;20083;-58
2021/01/12 06:51:10;;;;;;;4.30;0.57;;;;;;;;;;5048805;28;20506;-54
2021/01/12 06:53:36;;;;;;;1.85;0.43;;;;;;;;;;5051816;28;20105;-54
2021/01/12 06:56:06;;;;;;;4.72;0.70;;;;;;;;;;5051037;28;20032;-56
2021/01/12 06:58:32;;;;;;;10.32;1.50;;;;;;;;;;5051861;28;20033;-54
2021/01/12 07:00:59;;;;;;;1.42;0.57;;;;;;;;;;5049197;28;20102;-54
2021/01/12 07:03:29;;;;;;;1.02;0.45;;;;;;;;;;5034307;28;20036;-55
2021/01/12 07:05:59;;;;;;;12.40;1.40;;;;;;;;;;5049537;28;20513;-53
2021/01/12 07:08:26;;;;;;;3.10;0.00;;;;;;;;;;5039195;28;20041;-52
2021/01/12 07:10:53;;;;;;;3.50;1.92;;;;;;;;;;5038145;28;20574;-55
2021/01/12 07:13:19;;;;;;;5.28;0.98;;;;;;;;;;5038566;28;20037;-51
2021/01/12 07:15:49;;;;;;;7.57;0.68;;;;;;;;;;5036958;28;20056;-54
2021/01/12 07:18:22;;;;;;;2.15;0.82;;;;;;;;;;5035432;28;20033;-51
2021/01/12 07:20:49;;;;;;;1.35;0.20;;;;;;;;;;5038234;28;20038;-51
2021/01/12 07:23:16;;;;;;;10.70;1.42;;;;;;;;;;5038273;28;20071;-52
2021/01/12 07:25:43;;;;;;;0.00;0.00;;;;;;;;;;5040323;28;20017;-51
2021/01/12 07:28:15;;;;;;;0.65;0.43;;;;;;;;;;5045299;28;20394;-54
2021/01/12 07:30:43;;;;;;;3.83;0.90;;;;;;;;;;5049177;28;20427;-51
2021/01/12 07:33:30;;;;;;;9.85;1.23;;;;;;;;;;5041659;28;20040;-54
2021/01/12 07:35:57;;;;;;;6.38;2.30;;;;;;;;;;5049010;28;20035;-54
2021/01/12 07:38:25;;;;;;;0.05;0.05;;;;;;;;;;5047145;28;20107;-54
2021/01/12 07:40:52;;;;;;;3.92;2.83;;;;;;;;;;5041480;28;20642;-54
2021/01/12 07:43:19;;;;;;;0.00;0.00;;;;;;;;;;5039668;28;20025;-54
2021/01/12 07:45:46;;;;;;;3.83;0.45;;;;;;;;;;5049970;28;20057;-54
2021/01/12 07:48:13;;;;;;;5.32;1.42;;;;;;;;;;5050342;28;20017;-51
2021/01/12 07:50:42;;;;;;;0.57;0.10;;;;;;;;;;5051747;28;20043;-54
2021/01/12 07:53:08;;;;;;;3.60;2.95;;;;;;;;;;5047762;28;20021;-52
2021/01/12 07:55:34;;;;;;;3.63;0.47;;;;;;;;;;5048648;28;20041;-52
2021/01/12 07:58:00;;;;;;;1.08;0.10;;;;;;;;;;5049246;28;20111;-56
2021/01/12 08:00:28;;;;;;;1.23;0.28;;;;;;;;;;5049072;28;20059;-51
2021/01/12 08:02:54;;;;;;;3.42;0.10;;;;;;;;;;5050152;28;20405;-51
2021/01/12 08:05:23;;;;;;;10.13;0.73;;;;;;;;;;5048355;28;20032;-53
2021/01/12 08:07:50;;;;;;;1.10;0.32;;;;;;;;;;5048517;28;20425;-54
2021/01/12 08:10:16;;;;;;;2.50;1.17;;;;;;;;;;5048909;28;20049;-54
2021/01/12 08:12:42;;;;;;;5.40;1.10;;;;;;;;;;5048156;28;20013;-53
2021/01/12 08:15:09;;;;;;;0.15;0.05;;;;;;;;;;5050108;28;20025;-51
2021/01/12 08:17:36;;;;;;;5.72;1.40;;;;;;;;;;5049505;28;20063;-52
2021/01/12 08:20:06;;;;;;;2.63;0.93;;;;;;;;;;5048585;28;20145;-52
2021/01/12 08:22:32;;;;;;;5.18;1.08;;;;;;;;;;5046941;28;20108;-54
2021/01/12 08:25:05;;;;;;;1.15;0.35;;;;;;;;;;5048503;28;20056;-51
2021/01/12 08:27:31;;;;;;;3.60;1.20;;;;;;;;;;5048440;28;20040;-53
2021/01/12 08:30:10;;;;;;;0.98;0.55;;;;;;;;;;5051134;28;20059;-51
2021/01/12 08:32:38;;;;;;;4.80;1.35;;;;;;;;;;5051033;28;20033;-53
2021/01/12 08:35:07;;;;;;;0.63;0.38;;;;;;;;;;5044764;28;20037;-52
2021/01/12 08:37:37;;;;;;;3.72;1.35;;;;;;;;;;5042536;28;20109;-51
2021/01/12 08:40:04;;;;;;;6.47;2.25;;;;;;;;;;5034159;28;20079;-52
2021/01/12 08:42:31;;;;;;;9.63;0.30;;;;;;;;;;5047468;28;20099;-51
2021/01/12 08:44:57;;;;;;;23.73;1.73;;;;;;;;;;5050286;28;20045;-51
2021/01/12 08:47:25;;;;;;;0.75;0.30;;;;;;;;;;5036210;28;20413;-50
2021/01/12 08:49:59;;;;;;;1.45;0.28;;;;;;;;;;5041243;28;20033;-52
2021/01/12 08:52:26;;;;;;;4.88;0.93;;;;;;;;;;5044054;28;20072;-50
2021/01/12 08:54:52;;;;;;;0.10;0.10;;;;;;;;;;5043078;28;20033;-54
2021/01/12 08:57:18;;;;;;;0.13;0.10;;;;;;;;;;5048844;28;20026;-55
2021/01/12 08:59:44;;;;;;;1.75;0.88;;;;;;;;;;5046657;28;20017;-52
2021/01/12 09:02:17;;;;;;;0.70;0.52;;;;;;;;;;5045939;28;20037;-54
2021/01/12 09:04:43;;;;;;;0.40;0.35;;;;;;;;;;5044018;28;20028;-53
2021/01/12 09:07:09;;;;;;;2.47;0.38;;;;;;;;;;5045617;28;20375;-54
2021/01/12 09:09:35;;;;;;;0.10;0.10;;;;;;;;;;5045190;28;20033;-52
2021/01/12 09:12:03;;;;;;;2.55;0.22;;;;;;;;;;5046470;28;20029;-52
2021/01/12 09:14:32;;;;;;;3.22;0.40;;;;;;;;;;5045365;28;20021;-55
2021/01/12 09:17:02;;;;;;;2.15;1.65;;;;;;;;;;5043989;28;20029;-56
2021/01/12 09:19:35;;;;;;;0.28;0.00;;;;;;;;;;5046795;28;20031;-50
2021/01/12 09:22:08;;;;;;;0.47;0.47;;;;;;;;;;5045232;28;20029;-52
2021/01/12 09:24:34;;;;;;;2.30;0.63;;;;;;;;;;5046446;28;20018;-52
2021/01/12 09:27:01;;;;;;;1.08;0.57;;;;;;;;;;5049887;28;20155;-54
2021/01/12 09:29:36;;;;;;;0.85;0.17;;;;;;;;;;5035752;28;20506;-53
2021/01/12 09:32:02;;;;;;;11.88;1.25;;;;;;;;;;5041156;28;20127;-54
2021/01/12 09:34:28;;;;;;;2.50;0.40;;;;;;;;;;5047748;28;20399;-52
2021/01/12 09:36:54;;;;;;;3.20;1.17;;;;;;;;;;5046188;28;20036;-53
2021/01/12 09:39:20;;;;;;;12.40;0.90;;;;;;;;;;5048912;28;20025;-54
2021/01/12 09:41:50;;;;;;;7.05;0.30;;;;;;;;;;5043420;28;20043;-53
2021/01/12 09:44:16;;;;;;;3.08;0.28;;;;;;;;;;5036485;28;20414;-50
2021/01/12 09:46:42;;;;;;;0.20;0.00;;;;;;;;;;5039674;28;20100;-54
2021/01/12 09:49:08;;;;;;;1.98;1.00;;;;;;;;;;5044778;28;20025;-52
2021/01/12 09:51:34;;;;;;;1.42;0.30;;;;;;;;;;5034170;28;20113;-57
2021/01/12 09:54:01;;;;;;;0.10;0.10;;;;;;;;;;5035716;28;20025;-53
2021/01/12 09:56:27;;;;;;;14.70;2.47;;;;;;;;;;5041295;28;20044;-51
2021/01/12 09:58:53;;;;;;;7.07;0.30;;;;;;;;;;5042279;28;20017;-53
2021/01/12 10:01:20;;;;;;;9.90;0.88;;;;;;;;;;5040263;28;20080;-50
2021/01/12 10:03:47;;;;;;;0.65;0.35;;;;;;;;;;5033355;28;20036;-52
2021/01/12 10:06:17;;;;;;;2.70;0.28;;;;;;;;;;5032503;28;20068;-50
2021/01/12 10:08:45;;;;;;;0.00;0.00;;;;;;;;;;5048457;28;20033;-53
2021/01/12 10:11:11;;;;;;;0.00;0.00;;;;;;;;;;5043610;28;20037;-54
2021/01/12 10:13:37;;;;;;;0.10;0.10;;;;;;;;;;5040789;28;20053;-52
2021/01/12 10:16:04;;;;;;;0.00;0.00;;;;;;;;;;5035140;28;20025;-51
2021/01/12 10:18:30;;;;;;;1.85;0.30;;;;;;;;;;5042394;28;20036;-57
2021/01/12 10:20:56;;;;;;;0.05;0.00;;;;;;;;;;5049418;28;20095;-51
2021/01/12 10:23:22;;;;;;;1.05;0.08;;;;;;;;;;5036551;28;20030;-55
2021/01/12 10:25:48;;;;;;;5.60;0.73;;;;;;;;;;5034796;28;20113;-52
2021/01/12 10:28:14;;;;;;;1.50;0.20;;;;;;;;;;5034910;28;20033;-52
2021/01/12 10:30:41;;;;;;;5.22;0.25;;;;;;;;;;5032191;28;20470;-55
2021/01/12 10:33:07;;;;;;;0.65;0.30;;;;;;;;;;5047775;28;20056;-53
2021/01/12 10:35:33;;;;;;;9.15;0.50;;;;;;;;;;5035044;28;20040;-52
2021/01/12 10:37:59;;;;;;;0.17;0.03;;;;;;;;;;5040319;28;20029;-54
2021/01/12 10:40:25;;;;;;;0.73;0.20;;;;;;;;;;5045998;28;20036;-51
2021/01/12 10:42:52;;;;;;;10.45;2.92;;;;;;;;;;5037576;28;20021;-54
2021/01/12 10:45:18;;;;;;;1.55;0.90;;;;;;;;;;5035060;28;20415;-55
2021/01/12 10:47:44;;;;;;;0.00;0.00;;;;;;;;;;5039518;28;20087;-53
2021/01/12 10:50:18;;;;;;;0.52;0.47;;;;;;;;;;5048546;28;20402;-53
2021/01/12 10:52:44;;;;;;;18.10;3.08;;;;;;;;;;5049695;28;20033;-53
2021/01/12 10:55:11;;;;;;;49.90;5.40;;;;;;;;;;5047723;28;20021;-52
2021/01/12 10:57:37;;;;;;;23.30;1.67;;;;;;;;;;5050465;28;20056;-52
2021/01/12 11:00:07;;;;;;;18.58;2.33;;;;;;;;;;5050673;28;20083;-55
2021/01/12 11:02:34;;;;;;;12.23;1.38;;;;;;;;;;5039779;28;20025;-52
2021/01/12 11:05:00;;;;;;;17.67;2.30;;;;;;;;;;5039636;28;20025;-54
2021/01/12 11:07:27;;;;;;;18.77;2.25;;;;;;;;;;5038101;28;20025;-52
2021/01/12 11:09:53;;;;;;;0.47;0.10;;;;;;;;;;5037323;28;20083;-51
2021/01/12 11:12:20;;;;;;;7.25;0.73;;;;;;;;;;5034027;28;20405;-56
2021/01/12 11:14:46;;;;;;;12.48;1.13;;;;;;;;;;5045770;28;20028;-52
2021/01/12 11:17:13;;;;;;;8.50;0.75;;;;;;;;;;5039292;28;20025;-52
2021/01/12 11:19:40;;;;;;;1.30;0.20;;;;;;;;;;5040284;28;20017;-52
2021/01/12 11:22:06;;;;;;;19.42;0.85;;;;;;;;;;5048120;28;20025;-53
2021/01/12 11:24:33;;;;;;;24.65;2.90;;;;;;;;;;5035019;28;20051;-52
2021/01/12 11:26:59;;;;;;;9.20;0.70;;;;;;;;;;5048565;28;20119;-51
2021/01/12 11:29:26;;;;;;;2.08;0.10;;;;;;;;;;5047435;28;20033;-55
2021/01/12 11:31:56;;;;;;;0.00;0.00;;;;;;;;;;5050355;28;20102;-57
2021/01/12 11:34:22;;;;;;;3.92;0.45;;;;;;;;;;5046039;28;20025;-54
2021/01/12 11:36:49;;;;;;;0.03;0.00;;;;;;;;;;5048155;28;20051;-53
2021/01/12 11:39:17;;;;;;;0.08;0.00;;;;;;;;;;5034456;28;20033;-52
2021/01/12 11:41:50;;;;;;;0.10;0.00;;;;;;;;;;5048229;28;20486;-51
2021/01/12 11:44:17;;;;;;;0.55;0.10;;;;;;;;;;5049262;28;20044;-54
2021/01/12 11:46:44;;;;;;;4.15;0.73;;;;;;;;;;5041713;28;20025;-55
2021/01/12 11:49:10;;;;;;;0.10;0.05;;;;;;;;;;5034872;28;20083;-53
2021/01/12 11:51:44;;;;;;;2.70;0.75;;;;;;;;;;5032837;28;20037;-51
2021/01/12 11:54:10;;;;;;;1.45;0.10;;;;;;;;;;5049831;28;20029;-53
2021/01/12 11:56:37;;;;;;;4.88;0.70;;;;;;;;;;5037208;28;20029;-54
2021/01/12 11:59:03;;;;;;;1.70;1.27;;;;;;;;;;5045459;28;20067;-53
2021/01/12 12:01:29;;;;;;;1.55;0.52;;;;;;;;;;5044007;28;20041;-52
2021/01/12 12:03:55;;;;;;;2.90;0.52;;;;;;;;;;5036985;28;20020;-52
2021/01/12 12:06:22;;;;;;;9.57;0.52;;;;;;;;;;5035925;28;20017;-51
2021/01/12 12:08:48;;;;;;;0.13;0.10;;;;;;;;;;5051442;28;20078;-53
2021/01/12 12:11:14;;;;;;;2.47;0.30;;;;;;;;;;5049388;28;20039;-53
2021/01/12 12:13:41;;;;;;;1.77;0.50;;;;;;;;;;5039199;28;20028;-51
2021/01/12 12:16:17;;;;;;;0.20;0.10;;;;;;;;;;5034568;28;20021;-52
2021/01/12 12:18:44;;;;;;;1.70;0.90;;;;;;;;;;5030819;28;20021;-56
2021/01/12 12:21:13;;;;;;;13.15;1.08;;;;;;;;;;5031278;28;20112;-52
2021/01/12 12:23:39;;;;;;;0.00;0.00;;;;;;;;;;5037039;28;20079;-55
2021/01/12 12:26:11;;;;;;;4.55;1.15;;;;;;;;;;5032782;28;20033;-55
2021/01/12 12:28:38;;;;;;;0.00;0.00;;;;;;;;;;5035206;28;20064;-53
2021/01/12 12:31:05;;;;;;;3.83;2.10;;;;;;;;;;5037295;28;20505;-57
2021/01/12 12:33:31;;;;;;;9.23;1.52;;;;;;;;;;5034518;28;20049;-52
2021/01/12 12:35:57;;;;;;;9.23;0.93;;;;;;;;;;5051244;28;20033;-52
2021/01/12 12:38:23;;;;;;;0.70;0.13;;;;;;;;;;5033968;28;20044;-56
2021/01/12 12:40:49;;;;;;;1.83;0.63;;;;;;;;;;5037396;28;20040;-55
2021/01/12 12:43:16;;;;;;;16.23;1.42;;;;;;;;;;5041286;28;20066;-55
2021/01/12 12:45:43;;;;;;;0.38;0.15;;;;;;;;;;5036196;28;20407;-55
2021/01/12 12:48:10;;;;;;;7.57;0.57;;;;;;;;;;5048511;28;20025;-53
2021/01/12 12:50:36;;;;;;;7.20;1.52;;;;;;;;;;5050369;28;20569;-56
2021/01/12 12:53:03;;;;;;;0.20;0.20;;;;;;;;;;5037141;28;20029;-54
2021/01/12 12:55:29;;;;;;;5.53;0.50;;;;;;;;;;5036093;28;20393;-55
2021/01/12 12:57:55;;;;;;;0.32;0.10;;;;;;;;;;5042453;28;20022;-53
2021/01/12 13:00:21;;;;;;;0.65;0.30;;;;;;;;;;5045572;28;20553;-55
2021/01/12 13:02:47;;;;;;;0.82;0.55;;;;;;;;;;5036433;28;20021;-54
2021/01/12 13:05:14;;;;;;;11.85;1.17;;;;;;;;;;5034827;28;20041;-54
2021/01/12 13:07:40;;;;;;;0.22;0.10;;;;;;;;;;5041548;28;20028;-53
2021/01/12 13:10:07;;;;;;;0.75;0.50;;;;;;;;;;5042601;28;20041;-56
2021/01/12 13:12:35;;;;;;;3.72;0.98;;;;;;;;;;5038499;28;20036;-55
2021/01/12 13:15:01;;;;;;;1.92;0.65;;;;;;;;;;5035081;28;20052;-55
2021/01/12 13:17:33;;;;;;;8.10;1.20;;;;;;;;;;5040101;28;20545;-54
2021/01/12 13:20:05;;;;;;;1.40;0.68;;;;;;;;;;5037969;28;20525;-56
2021/01/12 13:22:32;;;;;;;4.10;0.10;;;;;;;;;;5033868;28;20055;-55
2021/01/12 13:24:58;;;;;;;7.18;0.75;;;;;;;;;;5031340;28;20140;-54
2021/01/12 13:27:25;;;;;;;1.63;0.68;;;;;;;;;;5038900;28;20033;-54
2021/01/12 13:29:51;;;;;;;13.02;2.78;;;;;;;;;;5036461;28;20033;-54
2021/01/12 13:32:17;;;;;;;0.95;0.63;;;;;;;;;;5036622;28;20029;-59
2021/01/12 13:34:43;;;;;;;6.18;0.88;;;;;;;;;;5035765;28;20056;-51
2021/01/12 13:37:09;;;;;;;15.75;1.80;;;;;;;;;;5046284;28;20402;-58
2021/01/12 13:39:36;;;;;;;4.97;0.98;;;;;;;;;;5029968;28;20017;-52
2021/01/12 13:42:05;;;;;;;0.60;0.10;;;;;;;;;;5034356;28;20035;-60
2021/01/12 13:44:31;;;;;;;0.65;0.10;;;;;;;;;;5048025;28;20541;-61
2021/01/12 13:46:58;;;;;;;1.67;1.55;;;;;;;;;;5038727;28;20033;-60
2021/01/12 13:49:24;;;;;;;0.60;0.60;;;;;;;;;;5038198;28;20029;-60
2021/01/12 13:51:51;;;;;;;0.43;0.43;;;;;;;;;;5045955;28;20112;-60
2021/01/12 13:54:21;;;;;;;12.57;1.90;;;;;;;;;;5031658;28;20089;-60
2021/01/12 13:56:52;;;;;;;22.77;1.63;;;;;;;;;;5034999;28;20083;-61
2021/01/12 13:59:19;;;;;;;0.98;0.30;;;;;;;;;;5043230;28;20033;-61
2021/01/12 14:01:45;;;;;;;16.80;0.38;;;;;;;;;;5039697;28;20065;-60
2021/01/12 14:04:12;;;;;;;0.20;0.10;;;;;;;;;;5034869;28;20112;-61
2021/01/12 14:06:38;;;;;;;2.40;0.98;;;;;;;;;;5031343;28;20048;-60
2021/01/12 14:09:04;;;;;;;8.88;1.48;;;;;;;;;;5033118;28;20065;-60
2021/01/12 14:11:31;;;;;;;4.40;1.17;;;;;;;;;;5045580;28;20072;-60
2021/01/12 14:13:57;;;;;;;2.55;0.10;;;;;;;;;;5042378;28;20021;-61
2021/01/12 14:16:25;;;;;;;1.13;0.63;;;;;;;;;;5050074;28;20021;-60
2021/01/12 14:18:51;;;;;;;7.88;1.08;;;;;;;;;;5051189;28;20021;-60
2021/01/12 14:21:19;;;;;;;16.80;2.08;;;;;;;;;;5051240;28;20045;-59
2021/01/12 14:23:48;;;;;;;2.10;0.15;;;;;;;;;;5052935;28;20029;-62
2021/01/12 14:26:14;;;;;;;1.75;0.22;;;;;;;;;;5050737;28;20049;-60
2021/01/12 14:28:40;;;;;;;1.67;0.10;;;;;;;;;;5050233;28;20025;-60
2021/01/12 14:31:07;;;;;;;10.38;1.65;;;;;;;;;;5050888;28;20029;-60
2021/01/12 14:33:33;;;;;;;0.95;0.43;;;;;;;;;;5050584;28;20029;-60
2021/01/12 14:35:59;;;;;;;0.75;0.40;;;;;;;;;;5052368;28;20013;-60
2021/01/12 14:38:32;;;;;;;4.75;0.88;;;;;;;;;;5049784;28;20037;-60
2021/01/12 14:40:58;;;;;;;1.30;0.17;;;;;;;;;;5047975;28;20410;-60
2021/01/12 14:43:24;;;;;;;2.42;0.30;;;;;;;;;;5050470;28;20021;-61
2021/01/12 14:45:50;;;;;;;0.47;0.32;;;;;;;;;;5050760;28;20112;-62
2021/01/12 14:48:16;;;;;;;1.02;0.10;;;;;;;;;;5050680;28;20017;-61
2021/01/12 14:50:43;;;;;;;0.00;0.00;;;;;;;;;;5052786;28;20398;-60
2021/01/12 14:53:11;;;;;;;0.52;0.20;;;;;;;;;;5050872;28;20048;-60
2021/01/12 14:55:38;;;;;;;1.77;0.40;;;;;;;;;;5051000;28;20175;-60
2021/01/12 14:58:04;;;;;;;0.95;0.50;;;;;;;;;;5050394;28;20029;-54
2021/01/12 15:00:30;;;;;;;16.25;0.95;;;;;;;;;;5049981;28;20542;-54
2021/01/12 15:02:57;;;;;;;9.70;1.55;;;;;;;;;;5048624;28;20025;-56
2021/01/12 15:05:23;;;;;;;1.35;0.15;;;;;;;;;;5048457;28;20036;-55
2021/01/12 15:07:49;;;;;;;3.35;0.57;;;;;;;;;;5041339;28;20536;-54
2021/01/12 15:10:15;;;;;;;1.42;0.80;;;;;;;;;;5041338;28;20044;-53
2021/01/12 15:12:41;;;;;;;4.20;0.65;;;;;;;;;;5045819;28;20021;-52
2021/01/12 15:15:07;;;;;;;1.40;0.75;;;;;;;;;;5044561;28;20057;-51
2021/01/12 15:17:34;;;;;;;0.00;0.00;;;;;;;;;;5046735;28;20112;-56
2021/01/12 15:20:00;;;;;;;1.48;0.15;;;;;;;;;;5047038;28;20079;-51
2021/01/12 15:22:26;;;;;;;0.52;0.30;;;;;;;;;;5046674;28;20066;-52
2021/01/12 15:24:52;;;;;;;0.98;0.28;;;;;;;;;;5047368;28;20390;-52
2021/01/12 15:27:19;;;;;;;4.80;0.30;;;;;;;;;;5035343;28;20049;-51
2021/01/12 15:29:47;;;;;;;73.03;2.38;;;;;;;;;;5071781;28;20037;-56
2021/01/12 15:32:13;;;;;;;1.75;0.30;;;;;;;;;;5040226;28;20032;-53
2021/01/12 15:34:39;;;;;;;2.25;0.20;;;;;;;;;;5047139;28;20041;-55
2021/01/12 15:37:05;;;;;;;3.35;1.30;;;;;;;;;;5041949;28;20025;-56
2021/01/12 15:39:32;;;;;;;0.30;0.20;;;;;;;;;;5048356;28;20065;-54
2021/01/12 15:41:58;;;;;;;3.60;0.93;;;;;;;;;;5048782;28;20519;-58
2021/01/12 15:44:25;;;;;;;1.13;0.47;;;;;;;;;;5043897;28;20450;-51
2021/01/12 15:46:51;;;;;;;1.95;0.40;;;;;;;;;;5047231;28;20028;-52
2021/01/12 15:49:17;;;;;;;3.83;0.70;;;;;;;;;;5048405;28;20039;-58
2021/01/12 15:51:43;;;;;;;1.27;0.75;;;;;;;;;;5048267;28;20051;-52
2021/01/12 15:54:10;;;;;;;0.57;0.32;;;;;;;;;;5041076;28;20036;-55
2021/01/12 15:56:36;;;;;;;2.78;0.60;;;;;;;;;;5041592;28;20055;-56
2021/01/12 15:59:05;;;;;;;0.47;0.15;;;;;;;;;;5047692;28;20021;-55
2021/01/12 16:01:31;;;;;;;6.03;0.80;;;;;;;;;;5039303;28;20564;-56
2021/01/12 16:03:58;;;;;;;2.15;0.57;;;;;;;;;;5072324;28;20024;-57
2021/01/12 16:06:25;;;;;;;4.22;1.50;;;;;;;;;;5035466;28;20239;-55
2021/01/12 16:08:51;;;;;;;0.43;0.10;;;;;;;;;;5047930;28;20024;-53
2021/01/12 16:11:24;;;;;;;1.83;0.40;;;;;;;;;;5046038;28;20044;-55
2021/01/12 16:13:50;;;;;;;12.95;2.50;;;;;;;;;;5046879;28;20588;-55
2021/01/12 16:16:16;;;;;;;1.48;0.43;;;;;;;;;;5034014;28;20142;-54
2021/01/12 16:18:43;;;;;;;3.40;0.20;;;;;;;;;;5036071;28;20394;-56
2021/01/12 16:21:09;;;;;;;0.55;0.15;;;;;;;;;;5042174;28;20103;-54
2021/01/12 16:23:37;;;;;;;0.00;0.00;;;;;;;;;;5042457;28;20679;-55
2021/01/12 16:26:06;;;;;;;3.58;0.52;;;;;;;;;;5043485;28;20548;-57
2021/01/12 16:28:33;;;;;;;5.72;0.30;;;;;;;;;;5075433;28;20063;-55
2021/01/12 16:31:03;;;;;;;4.03;0.57;;;;;;;;;;5036669;28;20466;-55
2021/01/12 16:33:37;;;;;;;8.55;0.43;;;;;;;;;;5043616;28;20031;-60
2021/01/12 16:36:09;;;;;;;1.03;0.20;;;;;;;;;;5046664;28;20037;-61
2021/01/12 16:38:36;;;;;;;0.35;0.10;;;;;;;;;;5047472;28;20091;-62
2021/01/12 16:41:08;;;;;;;3.53;0.98;;;;;;;;;;5046076;28;20079;-60
2021/01/12 16:43:43;;;;;;;2.33;1.90;;;;;;;;;;5047287;28;20078;-60
2021/01/12 16:46:16;;;;;;;0.20;0.13;;;;;;;;;;5046730;28;20036;-60
2021/01/12 16:49:01;;;;;;;3.13;0.85;;;;;;;;;;5046361;28;20029;-64
2021/01/12 16:51:33;;;;;;;3.92;0.38;;;;;;;;;;5046194;28;20051;-63
2021/01/12 16:54:29;;;;;;;3.13;0.38;;;;;;;;;;5048766;28;20041;-58
2021/01/12 16:57:01;;;;;;;3.88;0.50;;;;;;;;;;5043541;28;20037;-62
2021/01/12 16:59:50;;;;;;;5.53;0.63;;;;;;;;;;5046594;28;20070;-55
2021/01/12 17:02:31;;;;;;;0.20;0.20;;;;;;;;;;5038078;28;20095;-56
2021/01/12 17:04:59;;;;;;;8.70;2.55;;;;;;;;;;5047640;28;20037;-57
2021/01/12 17:07:25;;;;;;;5.80;0.68;;;;;;;;;;5047756;28;20425;-58
2021/01/12 17:09:56;;;;;;;12.75;1.75;;;;;;;;;;5040260;28;20029;-59
2021/01/12 17:12:23;;;;;;;0.15;0.10;;;;;;;;;;5031349;28;20165;-59
2021/01/12 17:14:51;;;;;;;1.77;0.70;;;;;;;;;;5046350;28;20078;-59
2021/01/12 17:17:23;;;;;;;4.70;1.48;;;;;;;;;;5040126;28;20544;-59
2021/01/12 17:19:51;;;;;;;6.30;0.75;;;;;;;;;;5038108;28;20073;-58
2021/01/12 17:22:26;;;;;;;0.15;0.13;;;;;;;;;;5037723;28;20044;-58
2021/01/12 17:24:55;;;;;;;0.08;0.08;;;;;;;;;;5070345;28;20037;-59
2021/01/12 17:27:25;;;;;;;2.08;0.30;;;;;;;;;;5040135;28;20055;-59
2021/01/12 17:29:57;;;;;;;25.23;0.32;;;;;;;;;;5041751;28;20025;-59
2021/01/12 17:32:24;;;;;;;1.10;0.22;;;;;;;;;;5038579;28;20501;-59
2021/01/12 17:34:59;;;;;;;1.75;0.05;;;;;;;;;;5040563;28;20764;-59
2021/01/12 17:37:26;;;;;;;1.95;1.38;;;;;;;;;;5041399;28;20061;-59
2021/01/12 17:39:59;;;;;;;1.67;0.52;;;;;;;;;;5039767;28;20065;-59
2021/01/12 17:42:43;;;;;;;0.10;0.10;;;;;;;;;;5042748;28;20455;-59
2021/01/12 17:45:09;;;;;;;3.63;0.68;;;;;;;;;;5042427;28;20112;-59
2021/01/12 17:47:38;;;;;;;3.45;0.68;;;;;;;;;;5041710;28;20017;-58
2021/01/12 17:50:07;;;;;;;1.08;0.52;;;;;;;;;;5038991;28;20051;-59
2021/01/12 17:52:34;;;;;;;1.23;0.20;;;;;;;;;;5053168;28;20556;-58
2021/01/12 17:55:16;;;;;;;7.60;2.00;;;;;;;;;;5037679;28;20033;-59
2021/01/12 17:57:43;;;;;;;5.03;0.80;;;;;;;;;;5040562;28;20029;-59
2021/01/12 18:00:14;;;;;;;6.78;0.70;;;;;;;;;;5042678;28;20075;-59
2021/01/12 18:02:41;;;;;;;0.00;0.00;;;;;;;;;;5038811;28;20026;-59
2021/01/12 18:05:14;;;;;;;1.85;0.20;;;;;;;;;;5036838;28;20029;-60
2021/01/12 18:07:56;;;;;;;5.38;2.22;;;;;;;;;;5039527;28;20033;-59
2021/01/12 18:10:25;;;;;;;10.98;1.58;;;;;;;;;;5035661;28;20029;-59
2021/01/12 18:12:54;;;;;;;0.15;0.10;;;;;;;;;;5034806;28;20049;-59
2021/01/12 18:15:21;;;;;;;2.35;2.15;;;;;;;;;;5040744;28;20512;-59
2021/01/12 18:17:51;;;;;;;3.67;0.10;;;;;;;;;;5044191;28;20453;-58
2021/01/12 18:20:19;;;;;;;0.50;0.25;;;;;;;;;;5043271;28;20490;-56
2021/01/12 18:22:48;;;;;;;6.35;0.52;;;;;;;;;;5045648;28;20102;-59
2021/01/12 18:25:24;;;;;;;3.55;0.50;;;;;;;;;;5042501;28;20029;-59
2021/01/12 18:27:54;;;;;;;0.98;0.57;;;;;;;;;;5045477;28;20061;-60
2021/01/12 18:30:22;;;;;;;0.00;0.00;;;;;;;;;;5042666;28;20036;-59
2021/01/12 18:32:53;;;;;;;9.65;2.42;;;;;;;;;;5046385;28;20033;-59
2021/01/12 18:35:20;;;;;;;0.38;0.00;;;;;;;;;;5046043;28;20120;-59
2021/01/12 18:37:47;;;;;;;1.23;0.73;;;;;;;;;;5042469;28;20475;-59
2021/01/12 18:40:18;;;;;;;0.00;0.00;;;;;;;;;;5043449;28;21304;-60
2021/01/12 18:42:50;;;;;;;3.38;0.95;;;;;;;;;;5033482;28;20380;-59
2021/01/12 18:45:16;;;;;;;4.05;0.25;;;;;;;;;;5029503;28;20516;-59
2021/01/12 18:47:52;;;;;;;;;;;;;;;;;;5034554;28;20038;-59
2021/01/12 18:50:18;;;;;;;;;;;;;;;;;;5047292;28;19961;-59
2021/01/12 18:52:44;;;;;;;;;;;;;;;;;;5041706;28;19916;-59
2021/01/12 18:55:10;;;;;;;1.23;0.20;;;;;;;;;;5035022;28;19908;-59
2021/01/12 18:57:38;;;;;;;1.23;0.22;;;;;;;;;;5048645;28;20502;-59
2021/01/12 19:00:20;;;;;;;2.35;0.38;;;;;;;;;;5048438;28;20058;-59
2021/01/12 19:02:48;;;;;;;0.10;0.05;;;;;;;;;;5033610;28;20056;-59
2021/01/12 19:05:14;;;;;;;2.90;0.20;;;;;;;;;;5051693;28;20029;-59
2021/01/12 19:07:42;;;;;;;2.13;0.25;;;;;;;;;;5046951;28;20398;-59
2021/01/12 19:10:09;;;;;;;1.00;0.30;;;;;;;;;;5046464;28;20020;-59
2021/01/12 19:12:35;;;;;;;1.35;0.00;;;;;;;;;;5050165;28;20091;-59
2021/01/12 19:15:01;;;;;;;0.00;0.00;;;;;;;;;;5051355;28;20020;-59
2021/01/12 19:17:28;;;;;;;1.88;0.55;;;;;;;;;;5051273;28;20538;-59
2021/01/12 19:19:55;;;;;;;14.90;0.35;;;;;;;;;;5048142;28;20649;-59
2021/01/12 19:22:22;;;;;;;5.88;1.65;;;;;;;;;;5048472;28;20482;-59
2021/01/12 19:24:53;;;;;;;3.63;0.52;;;;;;;;;;5049559;28;20025;-59
2021/01/12 19:27:19;;;;;;;0.00;0.00;;;;;;;;;;5049243;28;24023;-59
2021/01/12 19:29:46;;;;;;;0.00;0.00;;;;;;;;;;5051218;28;20024;-60
2021/01/12 19:32:13;;;;;;;0.00;0.00;;;;;;;;;;5043886;28;20031;-60
2021/01/12 19:34:44;;;;;;;13.50;1.75;;;;;;;;;;5046323;28;20025;-60
2021/01/12 19:37:11;;;;;;;6.03;1.17;;;;;;;;;;5047021;28;20024;-59
2021/01/12 19:39:37;;;;;;;0.15;0.15;;;;;;;;;;5049477;28;20429;-60
2021/01/12 19:42:05;;;;;;;0.00;0.00;;;;;;;;;;5050996;28;20215;-59
2021/01/12 19:44:33;;;;;;;2.08;0.20;;;;;;;;;;5052081;28;20044;-59
2021/01/12 19:47:03;;;;;;;0.00;0.00;;;;;;;;;;5050662;28;20031;-59
2021/01/12 19:49:29;;;;;;;3.83;0.35;;;;;;;;;;5050658;28;20077;-59
2021/01/12 19:51:56;;;;;;;19.73;2.08;;;;;;;;;;5046823;28;20403;-59
2021/01/12 19:54:23;;;;;;;26.10;2.00;;;;;;;;;;5032307;28;20029;-60
2021/01/12 19:56:50;;;;;;;28.50;4.13;;;;;;;;;;5046515;28;20025;-59
2021/01/12 19:59:16;;;;;;;15.98;2.42;;;;;;;;;;5040591;28;20033;-60
2021/01/12 20:01:43;;;;;;;17.15;2.35;;;;;;;;;;5047781;28;20138;-60
2021/01/12 20:04:10;;;;;;;23.50;2.97;;;;;;;;;;5047836;28;20031;-60
2021/01/12 20:06:38;;;;;;;33.33;2.65;;;;;;;;;;5046587;28;20368;-60
2021/01/12 20:09:05;;;;;;;32.35;3.40;;;;;;;;;;5048673;28;20602;-59
2021/01/12 20:11:41;;;;;;;27.33;3.25;;;;;;;;;;5047300;28;20051;-59
2021/01/12 20:14:08;;;;;;;38.58;4.30;;;;;;;;;;5045006;28;20029;-59
2021/01/12 20:16:47;;;;;;;33.65;3.42;;;;;;;;;;5045806;28;20041;-59
2021/01/12 20:19:13;;;;;;;37.45;3.92;;;;;;;;;;5045708;28;20055;-59
2021/01/12 20:21:44;;;;;;;25.63;3.45;;;;;;;;;;5046916;28;20116;-59
2021/01/12 20:24:16;;;;;;;13.73;1.70;;;;;;;;;;5046633;28;20422;-60
2021/01/12 20:26:43;;;;;;;19.63;3.45;;;;;;;;;;5047181;28;20108;-60
2021/01/12 20:29:10;;;;;;;31.92;2.90;;;;;;;;;;5046092;28;20025;-59
2021/01/12 20:31:36;;;;;;;27.45;2.13;;;;;;;;;;5041780;28;20025;-59
2021/01/12 20:34:08;;;;;;;0.65;0.10;;;;;;;;;;5046408;28;20558;-59
2021/01/12 20:36:36;;;;;;;3.00;0.35;;;;;;;;;;5046513;28;20090;-59
2021/01/12 20:39:03;;;;;;;1.63;0.63;;;;;;;;;;5046756;28;20115;-59
2021/01/12 20:41:31;;;;;;;0.75;0.38;;;;;;;;;;5046167;28;20040;-59
2021/01/12 20:43:58;;;;;;;0.13;0.00;;;;;;;;;;5046958;28;20017;-59
2021/01/12 20:46:29;;;;;;;1.23;0.13;;;;;;;;;;5047609;28;20025;-59
2021/01/12 20:48:55;;;;;;;0.80;0.30;;;;;;;;;;5047157;28;20070;-59